Time;durP1;ratioP1;P1;durP2;ratioP2;P2;SDS_P1;SDS_P2;PMS_P1;PMS_P2;Temp;Humidity;BMP_temperature;BMP_pressure;BME280_temperature;BME280_humidity;BME280_pressure;Samples;Min_cycle;Max_cycle;Signal;HPM_P1;HPM_P2
2021/08/29 00:02:13;;;;;;;16.98;9.68;;;;;;;16.50;65.92;102280.28;4957594;28;20051;-85
2021/08/29 00:04:40;;;;;;;16.90;9.90;;;;;;;16.47;66.05;102286.59;4951904;28;20059;-85
2021/08/29 00:07:07;;;;;;;14.98;8.98;;;;;;;16.47;65.94;102281.00;4952014;29;20045;-85
2021/08/29 00:09:34;;;;;;;16.95;7.70;;;;;;;16.43;66.21;102278.91;4949375;28;20039;-84
2021/08/29 00:12:01;;;;;;;17.92;8.85;;;;;;;16.37;66.10;102277.50;4952030;29;20055;-84
2021/08/29 00:14:27;;;;;;;14.43;9.35;;;;;;;16.34;66.36;102283.78;4950105;28;20066;-84
2021/08/29 00:16:54;;;;;;;13.52;8.23;;;;;;;16.32;66.22;102279.69;4952747;29;20492;-84
2021/08/29 00:19:21;;;;;;;13.65;8.60;;;;;;;16.31;66.14;102278.06;4952190;29;20130;-84
2021/08/29 00:21:48;;;;;;;14.18;9.30;;;;;;;16.30;66.30;102277.25;4951997;29;20142;-84
2021/08/29 00:24:15;;;;;;;15.10;9.85;;;;;;;16.27;66.23;102277.13;4949893;29;20055;-84
2021/08/29 00:26:41;;;;;;;10.55;8.23;;;;;;;16.26;66.22;102281.91;4952166;28;20459;-83
2021/08/29 00:29:08;;;;;;;13.13;8.57;;;;;;;16.22;66.11;102278.19;4951353;29;20554;-84
2021/08/29 00:31:35;;;;;;;13.88;8.23;;;;;;;16.17;66.70;102278.41;4966305;28;20045;-84
2021/08/29 00:34:01;;;;;;;15.82;9.00;;;;;;;16.15;66.33;102277.91;4936676;29;20186;-84
2021/08/29 00:36:28;;;;;;;13.50;9.63;;;;;;;16.15;66.40;102286.28;4949953;29;20039;-84
2021/08/29 00:38:55;;;;;;;14.45;8.38;;;;;;;16.11;66.51;102271.41;4952883;28;20514;-84
2021/08/29 00:41:21;;;;;;;16.58;10.27;;;;;;;16.08;66.53;102269.28;4950485;28;20050;-84
2021/08/29 00:43:48;;;;;;;20.67;10.50;;;;;;;16.09;66.61;102268.13;4951300;28;20051;-84
2021/08/29 00:46:17;;;;;;;14.32;10.15;;;;;;;16.10;66.68;102266.97;4950295;29;20062;-83
2021/08/29 00:48:54;;;;;;;14.85;9.20;;;;;;;16.13;66.80;102265.44;4952394;28;20039;-84
2021/08/29 00:51:21;;;;;;;16.80;9.75;;;;;;;16.09;66.70;102254.16;4966163;28;20054;-84
2021/08/29 00:53:53;;;;;;;14.00;9.65;;;;;;;16.04;66.81;102262.78;4951388;28;20495;-84
2021/08/29 00:56:24;;;;;;;18.35;10.23;;;;;;;16.01;66.79;102263.47;4952438;28;20043;-84
2021/08/29 00:58:51;;;;;;;14.00;8.13;;;;;;;16.00;66.72;102258.19;4951460;28;20495;-84
2021/08/29 01:01:28;;;;;;;12.55;8.10;;;;;;;15.94;67.13;102263.19;4951747;28;20146;-84
2021/08/29 01:04:00;;;;;;;12.10;9.32;;;;;;;16.00;66.69;102255.41;4951753;28;20051;-85
2021/08/29 01:06:38;;;;;;;12.30;8.65;;;;;;;16.05;66.67;102253.22;4942442;29;20141;-84
2021/08/29 01:09:07;;;;;;;13.85;8.85;;;;;;;16.00;66.43;102253.44;4950239;29;20039;-84
2021/08/29 01:11:37;;;;;;;14.52;10.13;;;;;;;15.94;66.92;102252.00;4953200;28;20053;-84
2021/08/29 01:14:06;;;;;;;14.27;8.25;;;;;;;15.90;66.91;102253.88;4950688;29;20430;-84
2021/08/29 01:16:36;;;;;;;16.77;9.93;;;;;;;15.85;67.12;102254.09;4951776;28;20134;-85
2021/08/29 01:19:12;;;;;;;10.68;8.15;;;;;;;15.84;67.09;102253.28;4948373;28;20039;-85
2021/08/29 01:21:41;;;;;;;13.90;9.55;;;;;;;15.89;66.81;102254.22;4952202;28;20053;-85
2021/08/29 01:24:14;;;;;;;14.63;9.13;;;;;;;15.82;67.00;102252.81;4951220;28;20057;-84
2021/08/29 01:27:33;;;;;;;14.23;9.65;;;;;;;15.75;67.26;102260.13;4951382;29;20041;-84
2021/08/29 01:30:01;;;;;;;14.65;8.98;;;;;;;15.71;66.88;102257.19;4940330;28;20055;-85
2021/08/29 01:32:28;;;;;;;14.20;9.73;;;;;;;15.66;67.26;102257.41;4951339;29;20049;-84
2021/08/29 01:34:55;;;;;;;13.50;10.05;;;;;;;15.62;67.31;102262.03;4951939;29;20070;-84
2021/08/29 01:37:23;;;;;;;17.80;11.18;;;;;;;15.60;67.57;102260.75;4951295;28;20073;-85
2021/08/29 01:39:50;;;;;;;15.05;10.30;;;;;;;15.59;67.63;102256.34;4950617;29;20058;-84
2021/08/29 01:42:19;;;;;;;17.55;10.25;;;;;;;15.58;67.58;102255.50;4952145;28;20043;-84
2021/08/29 01:44:47;;;;;;;16.95;10.77;;;;;;;15.59;67.53;102256.34;4951401;29;20058;-84
2021/08/29 01:47:16;;;;;;;19.17;12.45;;;;;;;15.51;67.80;102262.81;4965721;28;20055;-84
2021/08/29 01:49:45;;;;;;;20.73;10.45;;;;;;;15.46;67.88;102257.44;4953216;28;20068;-84
2021/08/29 01:52:14;;;;;;;20.70;10.88;;;;;;;15.43;68.07;102255.28;4971677;28;20050;-85
2021/08/29 01:54:40;;;;;;;19.25;10.98;;;;;;;15.41;68.02;102249.25;4970295;28;20497;-84
2021/08/29 01:57:13;;;;;;;19.23;9.95;;;;;;;15.37;68.36;102254.69;4970473;28;20043;-84
2021/08/29 01:59:42;;;;;;;16.27;11.43;;;;;;;15.35;68.37;102261.75;4954324;28;20031;-83
2021/08/29 02:02:13;;;;;;;18.10;10.25;;;;;;;15.36;68.46;102260.59;4970491;28;20043;-83
2021/08/29 02:04:44;;;;;;;14.95;9.95;;;;;;;15.39;68.10;102262.69;4971406;28;20053;-84
2021/08/29 02:07:11;;;;;;;16.40;11.90;;;;;;;15.35;68.26;102261.75;4970647;28;20043;-84
2021/08/29 02:09:42;;;;;;;17.98;11.50;;;;;;;15.29;68.64;102257.53;4969216;28;20043;-84
2021/08/29 02:12:11;;;;;;;17.75;11.20;;;;;;;15.29;68.30;102261.16;4954061;28;20086;-84
2021/08/29 02:14:44;;;;;;;16.23;9.93;;;;;;;15.27;68.79;102259.84;4969927;28;20049;-84
2021/08/29 02:17:12;;;;;;;19.20;10.85;;;;;;;15.23;68.58;102257.75;4971100;28;20055;-84
2021/08/29 02:19:41;;;;;;;18.83;11.70;;;;;;;15.22;68.84;102247.72;4972719;28;20047;-84
2021/08/29 02:22:08;;;;;;;18.38;11.23;;;;;;;15.20;68.96;102255.63;4973991;28;20070;-84
2021/08/29 02:24:36;;;;;;;20.05;10.93;;;;;;;15.16;69.01;102257.47;4955946;28;20047;-84
2021/08/29 02:27:03;;;;;;;19.42;11.93;;;;;;;15.12;69.06;102259.28;4973563;28;20488;-83
2021/08/29 02:29:30;;;;;;;17.13;9.70;;;;;;;15.07;69.17;102251.13;4972044;28;20046;-84
2021/08/29 02:31:57;;;;;;;14.93;10.18;;;;;;;15.03;69.28;102255.75;4971365;28;20039;-84
2021/08/29 02:34:24;;;;;;;19.58;11.48;;;;;;;14.97;69.21;102262.69;4968245;28;20110;-84
2021/08/29 02:36:52;;;;;;;15.55;9.93;;;;;;;14.97;69.47;102261.88;4956632;28;20038;-84
2021/08/29 02:39:24;;;;;;;18.95;11.93;;;;;;;14.97;69.61;102262.69;4974292;28;20046;-84
2021/08/29 02:41:51;;;;;;;17.17;11.93;;;;;;;14.92;69.42;102260.09;4973936;28;20397;-84
2021/08/29 02:44:23;;;;;;;14.90;9.75;;;;;;;14.90;69.54;102262.41;4955480;28;20047;-84
2021/08/29 02:46:50;;;;;;;;;;;;;;;14.83;69.69;102252.94;4956601;28;20149;-84
2021/08/29 02:49:24;;;;;;;17.83;9.65;;;;;;;14.81;69.61;102256.06;4973535;28;19921;-84
2021/08/29 02:51:52;;;;;;;18.58;10.15;;;;;;;14.85;69.48;102259.00;4973070;28;20078;-84
2021/08/29 02:54:22;;;;;;;16.85;10.80;;;;;;;14.80;69.65;102256.41;4957059;28;20046;-84
2021/08/29 02:56:50;;;;;;;21.17;11.48;;;;;;;14.79;69.93;102257.56;4974257;28;20047;-84
2021/08/29 02:59:17;;;;;;;13.95;10.50;;;;;;;14.76;69.85;102249.84;4973373;28;20051;-83
2021/08/29 03:01:44;;;;;;;19.90;10.88;;;;;;;14.76;70.08;102256.25;4971801;28;20057;-83
2021/08/29 03:04:12;;;;;;;23.10;10.27;;;;;;;14.77;70.02;102255.13;4953627;28;20105;-84
2021/08/29 03:06:39;;;;;;;14.68;10.07;;;;;;;14.73;70.10;102256.94;4951183;28;20114;-84
2021/08/29 03:09:06;;;;;;;16.10;10.18;;;;;;;14.73;69.69;102253.31;4954213;28;20494;-82
2021/08/29 03:11:34;;;;;;;14.75;10.07;;;;;;;14.72;69.87;102252.50;4971014;28;20474;-84
2021/08/29 03:14:01;;;;;;;14.07;9.38;;;;;;;14.73;69.65;102256.94;4953975;28;20047;-84
2021/08/29 03:16:31;;;;;;;13.70;9.15;;;;;;;14.70;69.53;102254.81;4973582;28;20467;-83
2021/08/29 03:18:59;;;;;;;16.52;9.23;;;;;;;14.68;69.77;102247.94;4973046;28;20043;-84
2021/08/29 03:21:26;;;;;;;18.85;9.82;;;;;;;14.64;69.74;102253.34;4973595;28;20042;-84
2021/08/29 03:23:53;;;;;;;14.18;8.63;;;;;;;14.66;69.68;102261.41;4972849;28;20502;-84
2021/08/29 03:26:23;;;;;;;17.10;9.25;;;;;;;14.63;70.17;102260.94;4974119;28;20049;-84
2021/08/29 03:28:50;;;;;;;15.10;7.57;;;;;;;14.67;69.92;102255.47;4972768;28;20053;-83
2021/08/29 03:31:17;;;;;;;15.75;9.48;;;;;;;14.71;69.77;102252.84;4952948;28;20046;-83
2021/08/29 03:33:47;;;;;;;15.75;9.75;;;;;;;14.72;69.96;102251.69;4972036;28;20105;-84
2021/08/29 03:36:23;;;;;;;15.85;7.97;;;;;;;14.70;70.02;102260.38;4966346;28;20142;-83
2021/08/29 03:38:52;;;;;;;15.05;10.05;;;;;;;14.71;70.10;102264.00;4944876;28;20054;-83
2021/08/29 03:41:23;;;;;;;12.57;8.23;;;;;;;14.69;70.56;102258.78;4973237;28;20137;-83
2021/08/29 03:43:50;;;;;;;14.50;9.30;;;;;;;14.73;70.72;102253.31;4972911;28;20485;-83
2021/08/29 03:46:17;;;;;;;14.63;8.68;;;;;;;14.80;70.41;102260.00;4954322;28;20051;-84
2021/08/29 03:48:44;;;;;;;15.50;9.52;;;;;;;14.82;70.51;102257.72;4955595;28;20070;-83
2021/08/29 03:51:14;;;;;;;24.40;14.10;;;;;;;14.85;71.09;102259.00;4971403;28;20043;-83
2021/08/29 03:53:41;;;;;;;22.08;13.50;;;;;;;14.90;71.31;102256.00;4972641;28;20474;-83
2021/08/29 03:56:12;;;;;;;24.70;14.90;;;;;;;14.96;71.82;102257.44;4973039;28;20047;-83
2021/08/29 03:58:42;;;;;;;25.52;14.90;;;;;;;14.98;72.24;102257.94;4971463;28;20035;-83
2021/08/29 04:01:09;;;;;;;34.95;17.10;;;;;;;15.03;72.54;102252.16;4972901;28;20054;-84
2021/08/29 04:03:36;;;;;;;44.38;16.83;;;;;;;15.09;72.81;102257.19;4971503;28;20486;-83
2021/08/29 04:06:04;;;;;;;69.70;17.98;;;;;;;15.21;73.01;102253.66;4972193;28;20057;-84
2021/08/29 04:08:35;;;;;;;36.42;17.05;;;;;;;15.21;73.73;102257.28;4972177;28;20047;-83
2021/08/29 04:11:02;;;;;;;52.37;18.10;;;;;;;15.22;73.65;102258.88;4972832;28;20074;-83
2021/08/29 04:13:30;;;;;;;38.05;16.63;;;;;;;15.26;73.82;102259.03;4955709;28;20337;-84
2021/08/29 04:15:59;;;;;;;43.47;19.38;;;;;;;15.28;74.34;102253.91;4971036;28;20046;-83
2021/08/29 04:18:26;;;;;;;36.25;15.40;;;;;;;15.31;74.34;102252.41;4971998;28;20395;-84
2021/08/29 04:20:53;;;;;;;35.15;15.50;;;;;;;15.33;74.72;102248.13;4972040;28;20061;-84
2021/08/29 04:23:20;;;;;;;31.25;16.00;;;;;;;15.35;75.22;102264.56;4972439;28;20050;-84
2021/08/29 04:25:47;;;;;;;25.35;13.27;;;;;;;15.34;75.31;102255.34;4954311;28;20051;-84
2021/08/29 04:28:14;;;;;;;39.40;13.57;;;;;;;15.37;75.71;102254.69;4955125;28;20065;-84
2021/08/29 04:30:41;;;;;;;24.48;12.23;;;;;;;15.37;75.92;102259.44;4971723;28;20046;-83
2021/08/29 04:33:08;;;;;;;40.22;13.98;;;;;;;15.39;76.18;102252.34;4972205;28;20046;-84
2021/08/29 04:35:35;;;;;;;40.45;13.00;;;;;;;15.42;76.25;102257.25;4971128;28;20038;-84
2021/08/29 04:38:02;;;;;;;54.15;13.73;;;;;;;15.46;76.52;102254.66;4972149;28;20045;-84
2021/08/29 04:40:29;;;;;;;32.03;13.00;;;;;;;15.47;76.50;102256.25;4972191;28;20043;-83
2021/08/29 04:42:55;;;;;;;32.30;12.68;;;;;;;15.45;76.83;102266.91;4970240;28;20054;-84
2021/08/29 04:45:22;;;;;;;53.17;12.75;;;;;;;15.48;77.09;102263.50;4971341;28;20077;-84
2021/08/29 04:47:49;;;;;;;37.63;13.68;;;;;;;15.45;77.18;102261.34;4970709;28;20065;-83
2021/08/29 04:50:17;;;;;;;36.88;14.13;;;;;;;15.45;77.40;102262.16;4965739;28;20039;-84
2021/08/29 04:52:43;;;;;;;33.90;13.90;;;;;;;15.46;77.56;102257.44;4971120;28;20043;-84
2021/08/29 04:55:10;;;;;;;24.40;12.13;;;;;;;15.49;77.43;102256.75;4972520;28;20074;-84
2021/08/29 04:57:37;;;;;;;23.48;11.27;;;;;;;15.54;77.36;102259.34;4953513;28;20437;-84
2021/08/29 05:00:05;;;;;;;26.17;14.30;;;;;;;15.57;77.15;102253.88;4971623;28;20058;-83
2021/08/29 05:02:32;;;;;;;36.60;15.82;;;;;;;15.57;77.53;102258.63;4968947;28;20512;-84
2021/08/29 05:04:59;;;;;;;36.00;14.13;;;;;;;15.57;77.49;102261.41;4971806;28;20158;-83
2021/08/29 05:07:27;;;;;;;30.50;13.65;;;;;;;15.57;77.38;102261.41;4971528;28;20039;-84
2021/08/29 05:09:53;;;;;;;30.67;13.23;;;;;;;15.57;77.45;102259.44;4971302;28;20057;-84
2021/08/29 05:12:20;;;;;;;30.83;12.65;;;;;;;15.59;77.44;102262.75;4971697;28;20065;-83
2021/08/29 05:14:47;;;;;;;30.30;14.55;;;;;;;15.60;77.47;102269.94;4970867;28;20039;-84
2021/08/29 05:17:13;;;;;;;33.60;14.50;;;;;;;15.59;77.61;102265.53;4953056;28;20046;-84
2021/08/29 05:19:40;;;;;;;31.95;14.25;;;;;;;15.56;77.68;102262.59;4971066;28;20046;-84
2021/08/29 05:22:07;;;;;;;29.23;13.55;;;;;;;15.57;77.80;102258.63;4971215;28;20529;-83
2021/08/29 05:24:34;;;;;;;26.80;12.50;;;;;;;15.59;77.79;102261.91;4971153;28;20059;-82
2021/08/29 05:27:00;;;;;;;35.38;15.43;;;;;;;15.58;77.99;102249.09;4969865;28;20081;-83
2021/08/29 05:29:27;;;;;;;32.90;14.68;;;;;;;15.57;77.77;102253.03;4954964;28;20121;-84
2021/08/29 05:31:54;;;;;;;29.73;13.60;;;;;;;15.58;77.99;102258.31;4969730;28;20586;-84
2021/08/29 05:34:21;;;;;;;31.75;14.48;;;;;;;15.57;77.90;102256.66;4964595;28;20053;-84
2021/08/29 05:36:47;;;;;;;35.58;15.90;;;;;;;15.58;77.83;102260.28;4969303;28;20065;-83
2021/08/29 05:39:14;;;;;;;30.05;13.65;;;;;;;15.58;78.06;102265.84;4952441;28;20492;-83
2021/08/29 05:41:41;;;;;;;24.00;14.23;;;;;;;15.60;77.82;102264.34;4969813;28;20240;-83
2021/08/29 05:44:07;;;;;;;27.17;13.40;;;;;;;15.60;77.81;102269.94;4969677;28;20042;-83
2021/08/29 05:46:34;;;;;;;33.55;14.48;;;;;;;15.65;78.13;102268.91;4971053;28;20051;-83
2021/08/29 05:49:01;;;;;;;28.23;15.38;;;;;;;15.69;77.99;102273.47;4970868;28;20047;-83
2021/08/29 05:51:28;;;;;;;33.38;16.00;;;;;;;15.77;77.70;102268.97;4969372;28;20047;-83
2021/08/29 05:53:55;;;;;;;29.02;14.80;;;;;;;15.83;77.50;102270.38;4971702;28;20054;-84
2021/08/29 05:56:22;;;;;;;38.03;17.05;;;;;;;15.85;77.39;102279.22;4973399;28;20501;-84
2021/08/29 05:58:48;;;;;;;33.92;15.93;;;;;;;15.87;77.63;102268.53;4975527;28;20733;-83
2021/08/29 06:01:15;;;;;;;28.77;15.05;;;;;;;15.90;77.67;102279.00;4974074;28;20393;-84
2021/08/29 06:03:42;;;;;;;30.02;16.75;;;;;;;15.91;77.58;102279.84;4974465;28;20050;-84
2021/08/29 06:06:09;;;;;;;38.17;16.30;;;;;;;15.91;77.80;102275.06;4973921;28;20449;-83
2021/08/29 06:08:36;;;;;;;41.90;16.90;;;;;;;15.90;77.53;102273.44;4975144;28;20047;-84
2021/08/29 06:11:05;;;;;;;30.13;15.55;;;;;;;15.92;77.60;102276.69;4955853;28;20575;-84
2021/08/29 06:13:31;;;;;;;31.85;16.13;;;;;;;15.94;77.48;102274.34;4971851;28;20042;-83
2021/08/29 06:15:58;;;;;;;32.88;14.48;;;;;;;15.92;77.83;102276.69;4972156;28;20069;-83
2021/08/29 06:18:29;;;;;;;34.08;17.33;;;;;;;15.93;77.80;102286.72;4973188;28;20049;-83
2021/08/29 06:20:56;;;;;;;28.50;15.07;;;;;;;15.97;77.77;102265.28;4972291;28;20047;-84
2021/08/29 06:23:23;;;;;;;32.72;16.80;;;;;;;16.01;77.52;102274.63;4974111;28;20043;-84
2021/08/29 06:25:49;;;;;;;29.88;15.48;;;;;;;16.05;77.55;102264.38;4972794;28;20054;-83
2021/08/29 06:28:16;;;;;;;36.17;17.83;;;;;;;16.09;77.63;102281.28;4975139;28;20401;-84
2021/08/29 06:30:43;;;;;;;40.60;16.00;;;;;;;16.10;77.69;102272.53;4973112;28;20049;-84
2021/08/29 06:33:09;;;;;;;32.20;16.50;;;;;;;16.09;77.59;102270.09;4972914;28;20051;-84
2021/08/29 06:35:38;;;;;;;30.17;16.73;;;;;;;16.03;77.69;102266.72;4973785;28;20042;-84
2021/08/29 06:38:04;;;;;;;33.58;15.35;;;;;;;16.05;77.98;102275.56;4973969;28;20084;-83
2021/08/29 06:40:31;;;;;;;36.33;17.33;;;;;;;16.05;77.96;102280.31;4973798;28;20065;-83
2021/08/29 06:42:59;;;;;;;32.28;15.18;;;;;;;16.08;78.00;102274.88;4970851;28;20717;-84
2021/08/29 06:45:25;;;;;;;36.30;16.92;;;;;;;16.12;77.78;102272.22;4972024;28;20513;-84
2021/08/29 06:47:52;;;;;;;38.67;17.30;;;;;;;16.09;77.97;102286.88;4956898;28;20494;-83
2021/08/29 06:50:19;;;;;;;47.40;20.98;;;;;;;16.04;78.00;102284.31;4974165;28;20047;-84
2021/08/29 06:52:46;;;;;;;37.03;15.60;;;;;;;16.07;77.81;102278.81;4973249;28;20098;-84
2021/08/29 06:55:12;;;;;;;38.88;17.50;;;;;;;16.13;77.73;102277.44;4973540;28;20177;-84
2021/08/29 06:57:39;;;;;;;40.45;16.25;;;;;;;16.14;77.78;102267.09;4971969;28;20043;-83
2021/08/29 07:00:06;;;;;;;37.85;17.23;;;;;;;16.15;77.65;102280.69;4971539;28;20507;-83
2021/08/29 07:02:33;;;;;;;38.58;18.33;;;;;;;16.12;77.61;102273.03;4973298;28;20478;-83
2021/08/29 07:05:00;;;;;;;48.08;20.00;;;;;;;16.16;77.54;102275.94;4956356;28;20054;-83
2021/08/29 07:07:27;;;;;;;52.42;21.50;;;;;;;16.16;77.56;102278.72;4955281;28;20046;-83
2021/08/29 07:09:54;;;;;;;50.30;19.70;;;;;;;16.14;77.76;102278.25;4973300;28;20049;-84
2021/08/29 07:12:21;;;;;;;57.00;22.13;;;;;;;16.11;77.78;102274.19;4972756;28;20134;-84
2021/08/29 07:14:47;;;;;;;48.72;20.92;;;;;;;16.09;77.76;102287.69;4973137;28;20051;-84
2021/08/29 07:17:16;;;;;;;47.75;19.63;;;;;;;16.12;77.64;102272.22;4955896;28;20398;-81
2021/08/29 07:19:43;;;;;;;49.22;21.83;;;;;;;16.12;77.54;102280.59;4972994;28;20117;-83
2021/08/29 07:22:09;;;;;;;56.17;20.77;;;;;;;16.10;77.57;102277.31;4917443;28;20055;-82
2021/08/29 07:24:40;;;;;;;44.50;18.92;;;;;;;16.13;77.80;102271.84;4929608;28;20066;-83
2021/08/29 07:27:07;;;;;;;50.30;21.25;;;;;;;16.13;77.60;102271.03;4927740;28;20406;-82
2021/08/29 07:29:33;;;;;;;48.70;20.58;;;;;;;16.16;77.71;102276.75;4929440;28;20046;-83
2021/08/29 07:32:00;;;;;;;50.22;21.38;;;;;;;16.17;77.69;102277.59;4931860;28;21741;-83
2021/08/29 07:34:27;;;;;;;42.60;20.00;;;;;;;16.21;77.56;102278.50;4929846;28;20050;-84
2021/08/29 07:36:54;;;;;;;51.25;20.15;;;;;;;16.16;78.09;102276.75;4929183;28;20047;-84
2021/08/29 07:39:20;;;;;;;50.75;22.00;;;;;;;16.15;77.85;102289.09;4929649;28;20057;-84
2021/08/29 07:41:47;;;;;;;53.75;22.20;;;;;;;16.18;78.09;102282.81;4932916;28;20046;-84
2021/08/29 07:44:14;;;;;;;55.15;20.58;;;;;;;16.22;77.75;102278.19;4911530;28;20189;-84
2021/08/29 07:46:41;;;;;;;51.15;20.58;;;;;;;16.25;77.80;102277.50;4957729;28;20057;-85
2021/08/29 07:49:07;;;;;;;42.72;17.95;;;;;;;16.27;77.85;102277.13;4972570;28;20054;-85
2021/08/29 07:51:34;;;;;;;44.47;20.35;;;;;;;16.28;77.91;102278.78;4955188;28;20069;-85
2021/08/29 07:54:01;;;;;;;43.88;19.30;;;;;;;16.32;77.91;102280.53;4972608;28;20478;-85
2021/08/29 07:56:27;;;;;;;45.95;19.45;;;;;;;16.35;77.72;102279.84;4971693;28;20398;-84
2021/08/29 07:58:54;;;;;;;45.60;20.50;;;;;;;16.40;77.71;102279.59;4960830;28;20054;-84
2021/08/29 08:01:22;;;;;;;46.78;19.92;;;;;;;16.42;77.64;102280.06;4972146;28;20121;-85
2021/08/29 08:03:49;;;;;;;44.40;20.00;;;;;;;16.42;77.92;102276.44;4970036;28;20479;-85
2021/08/29 08:06:20;;;;;;;49.80;21.52;;;;;;;16.43;77.75;102276.13;4969260;28;20145;-84
2021/08/29 08:08:47;;;;;;;42.75;19.15;;;;;;;16.48;77.84;102277.03;4972084;28;20046;-85
2021/08/29 08:11:14;;;;;;;48.55;20.77;;;;;;;16.46;77.81;102274.59;4972057;28;20047;-84
2021/08/29 08:13:41;;;;;;;40.10;18.17;;;;;;;16.45;78.12;102272.97;4971851;28;20050;-84
2021/08/29 08:16:07;;;;;;;46.42;20.42;;;;;;;16.47;78.10;102286.59;4940200;28;20058;-85
2021/08/29 08:18:34;;;;;;;50.33;20.60;;;;;;;16.44;78.19;102277.72;4970812;28;20049;-85
2021/08/29 08:21:01;;;;;;;45.13;19.30;;;;;;;16.50;78.29;102274.69;4954597;28;20509;-84
2021/08/29 08:23:28;;;;;;;42.88;18.60;;;;;;;16.51;78.46;102276.34;4971954;28;20047;-85
2021/08/29 08:25:54;;;;;;;50.92;22.48;;;;;;;16.48;78.32;102277.84;4972539;28;20038;-84
2021/08/29 08:28:21;;;;;;;53.28;27.85;;;;;;;16.49;78.50;102275.88;4971306;28;20057;-84
2021/08/29 08:30:48;;;;;;;49.30;21.85;;;;;;;16.53;78.62;102290.81;4972084;28;20082;-84
2021/08/29 08:33:15;;;;;;;45.83;18.25;;;;;;;16.57;78.50;102275.81;4972216;28;20066;-84
2021/08/29 08:35:41;;;;;;;38.10;18.98;;;;;;;16.60;78.45;102279.88;4972026;28;20065;-87
2021/08/29 08:38:08;;;;;;;33.20;16.38;;;;;;;16.64;78.40;102278.84;4960721;28;20470;-88
2021/08/29 08:40:41;;;;;;;32.50;15.32;;;;;;;16.63;78.79;102282.78;4972288;28;20059;-87
2021/08/29 08:43:09;;;;;;;27.75;14.10;;;;;;;16.64;78.73;102278.84;4971877;28;20047;-86
2021/08/29 08:45:37;;;;;;;28.02;13.13;;;;;;;16.63;78.98;102279.97;4971254;28;20077;-86
2021/08/29 08:48:05;;;;;;;22.00;12.32;;;;;;;16.65;79.25;102272.09;4970592;28;20502;-86
2021/08/29 08:50:35;;;;;;;22.10;11.63;;;;;;;16.66;79.27;102272.88;4970345;28;20050;-86
2021/08/29 08:53:04;;;;;;;11.73;8.10;;;;;;;16.64;79.44;102278.00;4954734;28;20054;-88
2021/08/29 08:55:32;;;;;;;11.57;7.47;;;;;;;16.62;79.44;102281.16;4971720;28;20101;-88
2021/08/29 08:58:00;;;;;;;10.75;6.57;;;;;;;16.59;79.68;102287.44;4960572;28;20027;-85
2021/08/29 09:00:27;;;;;;;12.35;7.45;;;;;;;16.56;79.68;102292.91;4959990;28;20035;-85
2021/08/29 09:11:40;;;;;;;11.05;7.10;;;;;;;16.59;78.85;102284.66;4930324;28;20051;-60
2021/08/29 09:14:08;;;;;;;8.63;5.80;;;;;;;16.62;78.94;102283.97;4931306;28;20897;-59
2021/08/29 09:16:35;;;;;;;6.53;4.72;;;;;;;16.64;79.01;102286.41;4935060;29;20051;-56
2021/08/29 09:19:04;;;;;;;10.90;5.50;;;;;;;16.66;78.95;102300.84;4933702;28;20058;-59
2021/08/29 09:21:34;;;;;;;7.72;5.15;;;;;;;16.65;78.91;102286.06;4933652;28;20046;-60
2021/08/29 09:24:07;;;;;;;10.70;5.00;;;;;;;16.66;78.74;102290.47;4933757;29;20039;-60
2021/08/29 09:26:39;;;;;;;7.15;4.50;;;;;;;16.69;78.87;102280.56;4934479;29;20507;-57
2021/08/29 09:29:07;;;;;;;6.60;4.65;;;;;;;16.77;78.62;102286.06;4933047;28;20051;-60
2021/08/29 09:31:45;;;;;;;7.07;4.10;;;;;;;16.81;78.42;102292.56;4937623;28;20065;-58
2021/08/29 09:34:13;;;;;;;8.13;4.03;;;;;;;16.85;78.35;102287.09;4937281;29;20076;-57
2021/08/29 09:36:40;;;;;;;6.03;3.83;;;;;;;16.91;77.90;102296.91;4936632;29;20051;-60
2021/08/29 09:39:17;;;;;;;6.45;3.45;;;;;;;16.98;77.64;102292.34;4937621;29;20058;-62
2021/08/29 09:41:44;;;;;;;3.90;3.33;;;;;;;17.06;77.53;102293.38;4936619;29;20039;-60
2021/08/29 09:44:11;;;;;;;5.68;3.20;;;;;;;17.15;77.15;102302.47;4937211;29;20141;-60
2021/08/29 09:47:00;;;;;;;4.18;2.80;;;;;;;17.21;76.38;102289.06;4939537;29;20051;-62
2021/08/29 09:49:30;;;;;;;4.72;2.85;;;;;;;17.21;76.46;102289.84;4938633;29;20054;-60
2021/08/29 09:51:59;;;;;;;6.75;3.55;;;;;;;17.21;76.29;102294.66;4936412;28;20047;-60
2021/08/29 09:54:33;;;;;;;5.55;3.33;;;;;;;17.22;75.82;102293.47;4937355;28;20055;-58
2021/08/29 09:57:05;;;;;;;7.60;3.72;;;;;;;17.20;75.64;102293.84;4937693;28;20047;-58
2021/08/29 09:59:46;;;;;;;5.65;3.08;;;;;;;17.21;75.53;102305.84;4935967;29;20539;-61
2021/08/29 10:02:31;;;;;;;6.15;4.07;;;;;;;17.26;75.26;102303.59;4926318;29;20169;-61
2021/08/29 10:05:13;;;;;;;4.90;3.53;;;;;;;17.31;74.98;102308.97;4930716;28;20050;-59
2021/08/29 10:08:04;;;;;;;5.22;3.50;;;;;;;17.37;74.37;102306.72;4937430;28;20057;-59
2021/08/29 10:10:35;;;;;;;4.97;3.30;;;;;;;17.45;74.69;102305.78;4939717;28;21480;-60
2021/08/29 10:13:02;;;;;;;7.75;3.22;;;;;;;17.52;74.50;102309.63;4938705;29;20051;-54
2021/08/29 10:15:31;;;;;;;4.18;2.58;;;;;;;17.55;74.07;102311.72;4936416;29;20039;-60
2021/08/29 10:18:01;;;;;;;4.28;2.80;;;;;;;17.58;73.34;102308.22;4940431;28;20484;-59
2021/08/29 10:20:34;;;;;;;3.92;2.92;;;;;;;17.57;73.29;102314.19;4938761;29;20047;-60
2021/08/29 10:23:03;;;;;;;5.72;3.03;;;;;;;17.60;73.24;102305.06;4937376;29;20132;-60
2021/08/29 10:25:32;;;;;;;7.15;3.20;;;;;;;17.58;72.92;102304.59;4938254;29;20047;-58
2021/08/29 10:28:06;;;;;;;5.18;3.03;;;;;;;17.63;72.52;102293.97;4936374;28;20055;-59
2021/08/29 10:30:39;;;;;;;6.07;2.70;;;;;;;17.73;72.38;102297.44;4933719;29;20481;-62
2021/08/29 10:33:08;;;;;;;5.15;3.30;;;;;;;17.83;72.30;102302.53;4935482;29;20046;-60
2021/08/29 10:35:35;;;;;;;4.28;3.05;;;;;;;17.89;72.32;102287.91;4935387;29;20046;-62
2021/08/29 10:38:02;;;;;;;3.47;2.58;;;;;;;17.95;72.14;102297.66;4936766;29;20067;-59
2021/08/29 10:40:29;;;;;;;5.30;3.50;;;;;;;18.02;71.93;102297.06;4935927;28;20420;-60
2021/08/29 10:42:58;;;;;;;7.43;3.17;;;;;;;18.02;71.90;102288.66;4937657;29;20211;-61
2021/08/29 10:45:25;;;;;;;6.25;2.75;;;;;;;18.04;71.70;102289.09;4935857;28;20043;-60
2021/08/29 10:47:57;;;;;;;4.78;3.38;;;;;;;18.08;71.95;102284.44;4922167;29;20047;-60
2021/08/29 10:50:25;;;;;;;6.20;3.00;;;;;;;18.15;71.74;102288.25;4937931;28;20058;-62
2021/08/29 10:52:51;;;;;;;4.97;3.10;;;;;;;18.27;71.21;102292.94;4935270;29;22237;-57
2021/08/29 10:55:19;;;;;;;6.47;2.80;;;;;;;18.34;70.97;102281.94;4937887;28;20042;-60
2021/08/29 10:57:48;;;;;;;5.95;3.10;;;;;;;18.39;70.98;102289.25;4937142;29;20054;-55
2021/08/29 11:00:18;;;;;;;5.25;3.15;;;;;;;18.41;70.59;102290.53;4919156;29;20133;-61
2021/08/29 11:02:49;;;;;;;5.35;2.88;;;;;;;18.42;70.06;102286.56;4941945;29;20511;-61
2021/08/29 11:05:29;;;;;;;6.43;4.10;;;;;;;18.46;70.09;102293.06;4918657;29;20047;-56
2021/08/29 11:07:57;;;;;;;5.20;3.65;;;;;;;18.46;70.04;102290.25;4936460;29;20051;-55
2021/08/29 11:10:36;;;;;;;5.85;3.85;;;;;;;18.47;69.63;102286.31;4935374;28;20132;-59
2021/08/29 11:13:33;;;;;;;4.00;3.20;;;;;;;18.46;69.59;102283.81;4935610;29;20050;-59
2021/08/29 11:16:12;;;;;;;4.65;2.97;;;;;;;18.51;69.25;102286.38;4930669;28;20060;-55
2021/08/29 11:19:02;;;;;;;8.55;4.32;;;;;;;18.49;69.16;102283.94;4935914;29;20040;-60
2021/08/29 11:21:34;;;;;;;5.35;3.88;;;;;;;18.50;69.20;102287.56;4929216;29;20055;-58
2021/08/29 11:24:06;;;;;;;5.83;3.43;;;;;;;18.50;69.03;102285.59;4921141;29;20044;-55
2021/08/29 11:26:40;;;;;;;6.82;3.63;;;;;;;18.47;69.02;102286.31;4909871;29;20047;-57
2021/08/29 11:29:40;;;;;;;5.15;3.67;;;;;;;18.43;68.77;102299.38;4936087;29;20460;-56
2021/08/29 11:32:11;;;;;;;7.50;3.67;;;;;;;18.43;69.01;102293.78;4924920;29;20091;-56